Centerdale, Rhode Island
Current Conditions -  °F | °C
As of 1:55 AM on Thursday 27 Nov 2014 (Local Time) from KSFZ Reporting Station
Overcast Overcast  
Wind Chill: 21°   Ceiling: 1400
Heat Index: 32°   Visibility: 3mi
Dew Point: 25°   Wind: 16mph
Humidity: 75%   Direction: 340°NNW
Pressure: 29.71"   Gusts: 24mph
Location:  41.8539°N, 71.4734°W
Report Text: KSFZ 270655Z 34014G21KT 3SM SCT008 OVC014 00/M04 A2971 RMK AO1 P0001
Loading
Personal Weather Stations






























Interactive Weather Map New forecast layout! Learn more

10-Day Weather Forecast

Advertisements
Track Severe Weather on mobile